Time;durP1;ratioP1;P1;durP2;ratioP2;P2;SDS_P1;SDS_P2;PMS_P1;PMS_P2;Temp;Humidity;BMP_temperature;BMP_pressure;BME280_temperature;BME280_humidity;BME280_pressure;Samples;Min_cycle;Max_cycle;Signal;HPM_P1;HPM_P2
2022/05/02 00:02:17;;;;;;;11.35;7.88;;;9.20;74.80;;;;;;4955752;28;20031;-75
2022/05/02 00:04:43;;;;;;;14.30;9.35;;;9.20;74.90;;;;;;4955962;28;20114;-75
2022/05/02 00:07:09;;;;;;;12.35;8.75;;;9.20;75.00;;;;;;4955897;28;20557;-74
2022/05/02 00:09:34;;;;;;;13.80;9.85;;;9.20;74.90;;;;;;4955966;28;20593;-75
2022/05/02 00:12:00;;;;;;;14.10;10.07;;;9.10;74.80;;;;;;4956007;29;20138;-75
2022/05/02 00:14:25;;;;;;;14.98;9.25;;;9.10;75.00;;;;;;4955781;28;20030;-75
2022/05/02 00:16:51;;;;;;;11.50;8.65;;;9.00;75.20;;;;;;4955899;29;20043;-75
2022/05/02 00:19:16;;;;;;;13.15;7.95;;;9.00;75.50;;;;;;4955749;28;20031;-75
2022/05/02 00:21:42;;;;;;;10.73;8.50;;;8.90;75.60;;;;;;4955638;28;20141;-75
2022/05/02 00:24:09;;;;;;;10.57;8.20;;;8.90;75.60;;;;;;4955776;29;20023;-75
2022/05/02 00:26:34;;;;;;;12.20;8.45;;;8.90;75.50;;;;;;4955597;28;20037;-74
2022/05/02 00:29:00;;;;;;;12.02;8.50;;;8.90;75.60;;;;;;4955409;28;20023;-75
2022/05/02 00:31:26;;;;;;;10.50;7.90;;;8.90;75.50;;;;;;4955308;28;20046;-75
2022/05/02 00:33:51;;;;;;;12.70;8.30;;;8.90;75.40;;;;;;4955637;28;20118;-74
2022/05/02 00:36:18;;;;;;;11.75;8.13;;;9.00;75.40;;;;;;4955374;28;20041;-74
2022/05/02 00:38:43;;;;;;;10.75;8.30;;;9.00;75.10;;;;;;4955259;28;20091;-74
2022/05/02 00:41:10;;;;;;;13.00;8.18;;;8.90;74.90;;;;;;4955009;28;20054;-75
2022/05/02 00:43:36;;;;;;;11.35;8.32;;;8.90;75.10;;;;;;4955080;28;20051;-75
2022/05/02 00:46:02;;;;;;;11.20;8.40;;;8.80;75.30;;;;;;4954987;28;20065;-76
2022/05/02 00:48:29;;;;;;;10.85;8.27;;;8.80;75.50;;;;;;4955432;29;20034;-75
2022/05/02 00:50:54;;;;;;;11.85;8.30;;;8.80;75.50;;;;;;4955135;28;20512;-75
2022/05/02 00:53:23;;;;;;;12.30;7.95;;;8.80;75.50;;;;;;4954863;28;20066;-74
2022/05/02 00:55:48;;;;;;;11.98;8.00;;;8.80;75.60;;;;;;4955058;28;20020;-74
2022/05/02 00:58:16;;;;;;;12.32;8.27;;;8.80;75.40;;;;;;4954805;28;20047;-75
2022/05/02 01:00:42;;;;;;;12.75;8.43;;;8.80;75.20;;;;;;4954849;28;20073;-74
2022/05/02 01:03:10;;;;;;;13.85;10.32;;;8.70;75.40;;;;;;4954912;28;20054;-73
2022/05/02 01:08:32;;;;;;;14.98;10.18;;;8.60;76.00;;;;;;4956263;28;20038;-74
2022/05/02 01:10:58;;;;;;;16.58;11.82;;;8.60;76.30;;;;;;4954803;28;20032;-74
2022/05/02 01:13:41;;;;;;;17.42;11.52;;;8.50;76.60;;;;;;4954633;28;20034;-74
2022/05/02 01:16:23;;;;;;;14.05;10.60;;;8.40;76.80;;;;;;4954953;28;20034;-74
2022/05/02 01:18:52;;;;;;;15.85;11.40;;;8.40;77.20;;;;;;4954660;29;20065;-74
2022/05/02 01:21:19;;;;;;;14.88;10.52;;;8.30;77.10;;;;;;4954416;28;20039;-74
2022/05/02 01:23:52;;;;;;;16.50;10.20;;;8.30;77.10;;;;;;4954694;28;20078;-74
2022/05/02 01:26:18;;;;;;;12.18;9.35;;;8.30;77.20;;;;;;4954497;28;20032;-74
2022/05/02 01:28:45;;;;;;;14.73;11.07;;;8.30;77.30;;;;;;4954262;28;20030;-74
2022/05/02 01:31:11;;;;;;;18.77;12.98;;;8.30;77.50;;;;;;4954323;29;20486;-74
2022/05/02 01:33:37;;;;;;;20.25;12.85;;;8.20;77.30;;;;;;4954567;29;20034;-74
2022/05/02 01:36:03;;;;;;;17.88;13.30;;;7.90;78.50;;;;;;4954158;28;20024;-74
2022/05/02 01:38:29;;;;;;;20.20;13.95;;;7.80;79.10;;;;;;4953968;28;20478;-74
2022/05/02 01:40:55;;;;;;;16.98;11.45;;;7.70;79.70;;;;;;4954308;28;20034;-75
2022/05/02 01:43:21;;;;;;;21.85;13.93;;;7.70;79.70;;;;;;4954573;28;20063;-74
2022/05/02 01:45:46;;;;;;;18.30;13.70;;;7.70;79.60;;;;;;4954357;28;20031;-74
2022/05/02 01:48:12;;;;;;;15.48;12.05;;;7.80;79.50;;;;;;4954165;28;20038;-74
2022/05/02 01:50:38;;;;;;;17.05;12.65;;;7.80;79.40;;;;;;4953957;28;20026;-74
2022/05/02 01:53:03;;;;;;;17.58;12.18;;;7.80;79.00;;;;;;4953858;28;20390;-74
2022/05/02 01:55:29;;;;;;;16.05;11.45;;;7.90;78.80;;;;;;4954070;28;20082;-75
2022/05/02 01:57:55;;;;;;;17.17;12.50;;;7.90;78.70;;;;;;4955157;28;20473;-75
2022/05/02 02:00:21;;;;;;;19.40;13.13;;;7.90;78.40;;;;;;4953873;28;20023;-74
2022/05/02 02:02:46;;;;;;;18.40;13.07;;;7.90;78.40;;;;;;4954045;28;20457;-74
2022/05/02 02:07:56;;;;;;;16.23;12.52;;;7.80;78.30;;;;;;4955271;29;20123;-74
2022/05/02 02:10:22;;;;;;;20.10;13.45;;;7.70;78.50;;;;;;4953684;28;20102;-74
2022/05/02 02:12:47;;;;;;;18.67;12.98;;;7.60;79.00;;;;;;4953853;28;20042;-74
2022/05/02 02:15:14;;;;;;;14.98;11.48;;;7.60;79.10;;;;;;4953752;29;20438;-74
2022/05/02 02:17:43;;;;;;;17.77;12.50;;;7.70;79.00;;;;;;4953840;28;20035;-74
2022/05/02 02:20:10;;;;;;;21.60;13.05;;;7.60;78.70;;;;;;4953715;28;20386;-74
2022/05/02 02:22:37;;;;;;;17.48;12.07;;;7.60;78.80;;;;;;4953652;28;20030;-74
2022/05/02 02:25:04;;;;;;;15.90;11.13;;;7.60;79.70;;;;;;4953596;29;20031;-74
2022/05/02 02:27:31;;;;;;;20.95;12.93;;;7.60;78.80;;;;;;4953569;28;20034;-74
2022/05/02 02:29:57;;;;;;;20.48;13.15;;;7.60;78.50;;;;;;4953659;28;20028;-74
2022/05/02 02:32:22;;;;;;;17.77;12.63;;;7.60;78.40;;;;;;4953472;28;20027;-74
2022/05/02 02:34:48;;;;;;;25.58;14.40;;;7.50;78.90;;;;;;4953406;28;20092;-74
2022/05/02 02:37:15;;;;;;;19.20;13.90;;;7.40;78.90;;;;;;4953396;28;20359;-74
2022/05/02 02:39:42;;;;;;;20.95;14.30;;;7.40;79.30;;;;;;4953490;29;20071;-74
2022/05/02 02:42:07;;;;;;;22.38;14.38;;;7.30;79.80;;;;;;4953522;28;20123;-74
2022/05/02 02:44:33;;;;;;;20.02;13.52;;;7.30;79.90;;;;;;4953337;28;20110;-74
2022/05/02 02:46:59;;;;;;;15.65;12.57;;;7.30;79.70;;;;;;4953607;28;20027;-74
2022/05/02 02:49:24;;;;;;;20.73;13.40;;;7.40;79.90;;;;;;4953465;28;20426;-74
2022/05/02 02:51:50;;;;;;;22.27;13.75;;;7.40;79.00;;;;;;4953602;29;20031;-74
2022/05/02 02:54:15;;;;;;;18.08;13.43;;;7.40;78.80;;;;;;4953500;28;20023;-74
2022/05/02 02:56:41;;;;;;;18.02;13.52;;;7.40;78.80;;;;;;4953071;28;20394;-75
2022/05/02 02:59:06;;;;;;;18.98;13.85;;;7.40;78.90;;;;;;4953371;28;20027;-74
2022/05/02 03:01:32;;;;;;;18.98;13.48;;;7.40;78.90;;;;;;4953244;28;20023;-74
2022/05/02 03:03:58;;;;;;;23.48;14.77;;;7.30;78.70;;;;;;4953121;28;20383;-75
2022/05/02 03:06:24;;;;;;;22.63;14.55;;;7.30;78.90;;;;;;4953454;28;20105;-74
2022/05/02 03:08:50;;;;;;;20.63;14.32;;;7.20;79.50;;;;;;4953276;28;20063;-74
2022/05/02 03:11:16;;;;;;;22.83;14.07;;;7.10;79.70;;;;;;4953305;28;20058;-74
2022/05/02 03:13:41;;;;;;;19.20;13.30;;;7.10;79.70;;;;;;4953470;28;20081;-74
2022/05/02 03:16:07;;;;;;;20.65;13.90;;;7.10;79.60;;;;;;4955426;28;20500;-73
2022/05/02 03:18:34;;;;;;;19.35;14.05;;;7.10;79.60;;;;;;4959134;28;20085;-74
2022/05/02 03:21:00;;;;;;;22.33;14.88;;;7.20;79.60;;;;;;4957236;29;20030;-75
2022/05/02 03:23:26;;;;;;;17.85;12.82;;;7.20;79.70;;;;;;4957354;28;20028;-75
2022/05/02 03:25:52;;;;;;;20.73;13.32;;;7.20;79.50;;;;;;4957148;28;20066;-75
2022/05/02 03:28:17;;;;;;;19.40;13.75;;;7.20;79.30;;;;;;4956984;29;20027;-74
2022/05/02 03:30:43;;;;;;;18.83;13.32;;;7.20;79.00;;;;;;4956762;29;20031;-74
2022/05/02 03:33:09;;;;;;;24.50;15.27;;;7.20;79.00;;;;;;4956337;28;20031;-73
2022/05/02 03:35:35;;;;;;;20.85;14.23;;;7.20;79.00;;;;;;4956530;29;20063;-73
2022/05/02 03:38:01;;;;;;;19.67;14.00;;;7.10;79.60;;;;;;4956340;28;20133;-74
2022/05/02 03:40:27;;;;;;;20.92;15.45;;;7.10;79.60;;;;;;4956272;28;20087;-74
2022/05/02 03:42:52;;;;;;;17.98;13.25;;;7.00;79.50;;;;;;4956560;28;20417;-74
2022/05/02 03:45:18;;;;;;;18.65;14.30;;;7.00;79.60;;;;;;4956428;29;20118;-74
2022/05/02 03:47:44;;;;;;;17.80;13.25;;;7.00;79.60;;;;;;4955955;28;20037;-75
2022/05/02 03:50:09;;;;;;;17.90;14.15;;;6.90;79.80;;;;;;4955820;29;20019;-74
2022/05/02 03:52:35;;;;;;;21.13;13.90;;;7.00;79.70;;;;;;4956324;28;20054;-75
2022/05/02 03:55:01;;;;;;;25.85;16.25;;;6.90;79.80;;;;;;4956187;28;20023;-75
2022/05/02 03:57:27;;;;;;;25.75;16.88;;;6.80;80.10;;;;;;4955869;28;20059;-75
2022/05/02 03:59:53;;;;;;;22.95;15.38;;;6.70;80.80;;;;;;4955691;28;20058;-74
2022/05/02 04:02:18;;;;;;;24.67;16.45;;;6.70;81.80;;;;;;4955778;28;20474;-74
2022/05/02 04:04:44;;;;;;;23.02;14.90;;;6.60;81.50;;;;;;4955873;28;20477;-74
2022/05/02 04:07:09;;;;;;;24.70;15.95;;;6.70;81.30;;;;;;4955702;28;20027;-75
2022/05/02 04:09:35;;;;;;;22.85;15.30;;;6.80;80.70;;;;;;4955353;28;20410;-73
2022/05/02 04:12:01;;;;;;;23.27;15.38;;;6.80;80.30;;;;;;4955851;28;20063;-74
2022/05/02 04:14:27;;;;;;;20.13;14.43;;;6.70;80.60;;;;;;4955969;29;20019;-74
2022/05/02 04:16:52;;;;;;;21.92;14.75;;;6.70;80.80;;;;;;4955770;28;20031;-74
2022/05/02 04:19:19;;;;;;;24.17;15.40;;;6.60;81.00;;;;;;4955778;29;20438;-74
2022/05/02 04:21:45;;;;;;;20.70;15.52;;;6.70;81.10;;;;;;4955700;28;20031;-74
2022/05/02 04:24:10;;;;;;;19.70;14.18;;;6.70;81.10;;;;;;4955755;29;20467;-74
2022/05/02 04:26:36;;;;;;;24.42;15.18;;;6.70;80.90;;;;;;4955603;28;20031;-74
2022/05/02 04:29:02;;;;;;;21.40;14.60;;;6.80;80.50;;;;;;4954990;28;20282;-74
2022/05/02 04:31:27;;;;;;;21.40;13.48;;;6.80;80.70;;;;;;4955680;28;20098;-74
2022/05/02 04:33:53;;;;;;;18.05;12.75;;;6.80;80.20;;;;;;4955452;28;20490;-74
2022/05/02 04:36:19;;;;;;;22.23;15.18;;;6.90;79.90;;;;;;4955305;28;20086;-74
2022/05/02 04:38:44;;;;;;;19.42;13.65;;;7.00;79.60;;;;;;4955293;28;20051;-74
2022/05/02 04:41:14;;;;;;;24.27;14.95;;;7.00;79.50;;;;;;4955074;28;20030;-74
2022/05/02 04:43:41;;;;;;;23.85;15.20;;;6.90;79.80;;;;;;4954876;28;20031;-74
2022/05/02 04:46:07;;;;;;;20.33;14.82;;;7.00;79.80;;;;;;4955216;28;20019;-74
2022/05/02 04:48:33;;;;;;;20.25;14.63;;;7.20;79.70;;;;;;4954707;28;20029;-74
2022/05/02 04:50:59;;;;;;;23.27;15.55;;;7.20;79.10;;;;;;4954962;28;20023;-73
2022/05/02 04:53:24;;;;;;;23.73;16.15;;;7.30;78.80;;;;;;4954998;28;20042;-76
2022/05/02 04:55:50;;;;;;;21.92;15.52;;;7.30;78.80;;;;;;4954679;29;20504;-76
2022/05/02 04:58:15;;;;;;;21.33;15.20;;;7.40;78.50;;;;;;4954391;28;20039;-74
2022/05/02 05:00:42;;;;;;;20.02;15.15;;;7.40;78.30;;;;;;4954939;28;20541;-74
2022/05/02 05:03:08;;;;;;;21.15;14.05;;;7.40;78.20;;;;;;4955001;28;20491;-74
2022/05/02 05:05:33;;;;;;;20.08;13.75;;;7.30;78.30;;;;;;4955046;28;20019;-74
2022/05/02 05:08:00;;;;;;;21.00;14.07;;;7.30;78.70;;;;;;4954575;28;20393;-74
2022/05/02 05:10:26;;;;;;;18.60;13.88;;;7.30;79.60;;;;;;4954843;28;20031;-74
2022/05/02 05:13:06;;;;;;;18.05;13.13;;;7.40;79.00;;;;;;4954416;28;20049;-74
2022/05/02 05:19:02;;;;;;;22.42;15.95;;;7.50;78.60;;;;;;4955772;28;20082;-74
2022/05/02 05:21:51;;;;;;;21.63;15.80;;;7.50;77.90;;;;;;4954447;28;20030;-74
2022/05/02 05:24:53;;;;;;;24.10;15.77;;;7.60;77.70;;;;;;4954080;29;20093;-74
2022/05/02 05:27:25;;;;;;;23.88;15.95;;;7.70;77.50;;;;;;4954972;28;20023;-74
2022/05/02 05:30:08;;;;;;;20.92;15.90;;;7.80;77.10;;;;;;4953851;29;20028;-74
2022/05/02 05:33:03;;;;;;;22.08;16.02;;;7.80;77.40;;;;;;4954073;28;20027;-75
2022/05/02 05:35:50;;;;;;;27.65;18.73;;;7.80;77.60;;;;;;4954189;29;20390;-75
2022/05/02 05:38:33;;;;;;;21.27;15.95;;;7.80;77.70;;;;;;4953307;28;20480;-74
2022/05/02 05:41:25;;;;;;;30.05;17.73;;;7.80;77.80;;;;;;4953530;28;20030;-75
2022/05/02 05:44:07;;;;;;;23.08;15.68;;;8.00;77.70;;;;;;4953716;29;20024;-75
2022/05/02 05:46:54;;;;;;;28.77;17.27;;;8.10;77.50;;;;;;4953945;28;20035;-76
2022/05/02 05:49:45;;;;;;;22.45;15.65;;;8.30;77.10;;;;;;4953938;28;20126;-76
2022/05/02 05:52:15;;;;;;;24.85;17.45;;;8.40;77.00;;;;;;4953709;29;20042;-75
2022/05/02 05:55:03;;;;;;;26.92;17.10;;;8.50;76.90;;;;;;4953529;28;20100;-75
2022/05/02 05:57:43;;;;;;;26.92;18.13;;;8.60;76.50;;;;;;4953408;28;20126;-75
2022/05/02 06:00:13;;;;;;;25.23;17.30;;;8.70;76.60;;;;;;4953648;28;20031;-75
2022/05/02 06:03:19;;;;;;;21.75;15.73;;;8.80;76.40;;;;;;4953605;28;20070;-76
2022/05/02 06:05:46;;;;;;;21.33;15.52;;;9.00;76.20;;;;;;4953412;28;20027;-75
2022/05/02 06:08:20;;;;;;;26.55;17.08;;;9.10;76.70;;;;;;4953233;28;20034;-75
2022/05/02 06:10:49;;;;;;;20.38;15.50;;;9.30;75.30;;;;;;4953283;28;20019;-73
2022/05/02 06:13:16;;;;;;;21.98;15.45;;;9.40;75.00;;;;;;4953223;29;20032;-75
2022/05/02 06:18:36;;;;;;;15.60;12.65;;;9.70;74.00;;;;;;4954656;28;20043;-74
2022/05/02 06:21:04;;;;;;;18.85;13.52;;;9.80;73.90;;;;;;4953327;28;20047;-74
2022/05/02 06:23:36;;;;;;;15.85;12.82;;;10.00;73.70;;;;;;4953298;28;20058;-75
2022/05/02 06:26:02;;;;;;;17.40;11.68;;;10.20;73.10;;;;;;4953121;28;20031;-75
2022/05/02 06:28:38;;;;;;;17.67;12.60;;;10.40;72.70;;;;;;4953485;28;20382;-75
2022/05/02 06:31:09;;;;;;;18.33;13.75;;;10.60;72.10;;;;;;4953288;29;20055;-74
2022/05/02 06:33:34;;;;;;;19.48;14.45;;;10.70;71.60;;;;;;4953445;29;20019;-75
2022/05/02 06:36:35;;;;;;;22.30;15.60;;;10.80;70.70;;;;;;4954286;28;20501;-74
2022/05/02 06:39:39;;;;;;;21.55;16.33;;;10.90;70.10;;;;;;4954133;28;20410;-75
2022/05/02 06:42:55;;;;;;;22.60;16.00;;;10.80;70.90;;;;;;4952617;29;20035;-75
2022/05/02 06:45:33;;;;;;;19.85;14.73;;;10.90;70.60;;;;;;4955141;28;20030;-75
2022/05/02 06:48:24;;;;;;;23.17;16.30;;;11.00;70.80;;;;;;4955509;28;20107;-76
2022/05/02 06:51:06;;;;;;;24.42;17.50;;;11.00;70.60;;;;;;4956071;28;20039;-74
2022/05/02 06:53:59;;;;;;;31.90;16.30;;;10.90;72.00;;;;;;4956920;29;20035;-75
2022/05/02 06:56:44;;;;;;;31.15;15.52;;;11.20;77.30;;;;;;4957090;29;20019;-74
2022/05/02 06:59:19;;;;;;;25.38;14.32;;;11.80;77.90;;;;;;4956617;28;20035;-74
2022/05/02 07:01:59;;;;;;;18.70;14.20;;;12.30;74.10;;;;;;4956740;28;20033;-74
2022/05/02 07:04:33;;;;;;;25.48;12.65;;;12.70;70.90;;;;;;4956185;28;20051;-75
2022/05/02 07:07:42;;;;;;;21.08;13.80;;;13.10;68.70;;;;;;4956385;28;20024;-74
2022/05/02 07:10:23;;;;;;;17.98;12.07;;;13.30;65.90;;;;;;4963285;28;20045;-74
2022/05/02 07:13:08;;;;;;;15.10;10.93;;;13.50;65.30;;;;;;4956678;29;20023;-73
2022/05/02 07:15:50;;;;;;;17.57;8.93;;;13.80;64.40;;;;;;4956368;28;20103;-73
2022/05/02 07:18:54;;;;;;;21.52;11.57;;;14.10;63.10;;;;;;4956590;28;20039;-73
2022/05/02 07:21:36;;;;;;;15.95;10.98;;;14.30;62.30;;;;;;4956233;28;20466;-74
2022/05/02 07:24:16;;;;;;;15.38;10.65;;;14.50;62.60;;;;;;4955883;29;20031;-73
2022/05/02 07:26:46;;;;;;;12.30;10.10;;;14.60;62.00;;;;;;4956241;28;20039;-73
2022/05/02 07:29:15;;;;;;;15.40;12.00;;;14.80;61.40;;;;;;4955939;29;20047;-73
2022/05/02 07:31:43;;;;;;;15.63;11.52;;;14.90;60.50;;;;;;4956213;28;20114;-74
2022/05/02 07:34:12;;;;;;;17.88;12.00;;;14.90;59.70;;;;;;4958019;28;20023;-73
2022/05/02 07:36:39;;;;;;;17.77;11.55;;;14.60;59.60;;;;;;4963293;28;20038;-73
2022/05/02 07:39:06;;;;;;;13.60;11.00;;;14.30;61.20;;;;;;4964290;28;20485;-73
2022/05/02 07:41:33;;;;;;;13.40;10.52;;;14.50;61.60;;;;;;4965176;28;20031;-73
2022/05/02 07:44:06;;;;;;;15.48;11.43;;;14.70;60.80;;;;;;4962819;28;20019;-72
2022/05/02 07:46:37;;;;;;;13.05;11.00;;;14.90;60.30;;;;;;4965387;28;20121;-73
2022/05/02 07:49:05;;;;;;;14.73;12.00;;;15.10;59.90;;;;;;4964237;28;20019;-76
2022/05/02 07:51:31;;;;;;;15.88;12.10;;;15.20;59.70;;;;;;4975352;28;20026;-76
2022/05/02 07:54:00;;;;;;;16.92;12.45;;;14.90;59.90;;;;;;4975233;28;20034;-75
2022/05/02 07:56:30;;;;;;;15.05;12.68;;;14.80;60.50;;;;;;4975011;28;20085;-74
2022/05/02 07:58:57;;;;;;;20.58;14.32;;;14.60;62.40;;;;;;4975181;28;20449;-75
2022/05/02 08:01:24;;;;;;;21.40;15.00;;;14.40;62.40;;;;;;4974433;28;20030;-74
2022/05/02 08:03:51;;;;;;;20.88;15.07;;;14.30;63.30;;;;;;4973896;28;20362;-74
2022/05/02 08:06:42;;;;;;;22.52;15.90;;;14.30;64.00;;;;;;4974926;28;20027;-75
2022/05/02 08:09:28;;;;;;;18.77;14.43;;;14.40;63.30;;;;;;4975169;28;20089;-75
2022/05/02 08:12:19;;;;;;;18.25;13.48;;;14.20;63.30;;;;;;4974368;28;20025;-75
2022/05/02 08:15:15;;;;;;;18.02;13.68;;;14.20;64.10;;;;;;4974609;28;20031;-75
2022/05/02 08:18:24;;;;;;;20.88;15.30;;;14.20;63.90;;;;;;4974199;28;20030;-75
2022/05/02 08:21:04;;;;;;;23.98;15.23;;;14.10;64.10;;;;;;4974671;28;20031;-75
2022/05/02 08:27:15;;;;;;;20.73;16.02;;;13.90;65.80;;;;;;4975504;28;20034;-74
2022/05/02 08:30:14;;;;;;;23.92;15.75;;;13.70;65.30;;;;;;4975394;28;20019;-74
2022/05/02 08:32:50;;;;;;;29.52;17.77;;;13.90;65.90;;;;;;4978657;28;20374;-74
2022/05/02 08:35:47;;;;;;;27.10;16.90;;;13.90;65.60;;;;;;4978688;28;20027;-77
2022/05/02 08:38:30;;;;;;;28.08;18.13;;;14.10;66.30;;;;;;4973779;28;20047;-76
2022/05/02 08:41:08;;;;;;;22.75;16.85;;;14.20;66.30;;;;;;4973791;28;20527;-74
2022/05/02 08:43:42;;;;;;;22.95;17.42;;;14.30;66.30;;;;;;4973823;28;20334;-74
2022/05/02 08:46:49;;;;;;;22.80;15.77;;;14.40;65.20;;;;;;4974067;28;20050;-73
2022/05/02 08:49:49;;;;;;;21.85;15.52;;;14.50;65.10;;;;;;4973773;28;20122;-76
2022/05/02 08:52:29;;;;;;;22.75;15.18;;;14.80;64.10;;;;;;4974187;28;20023;-77
2022/05/02 08:55:04;;;;;;;15.65;12.35;;;14.80;62.60;;;;;;4973802;28;20026;-76
2022/05/02 08:58:18;;;;;;;21.27;14.63;;;14.80;62.70;;;;;;4973490;28;20078;-76
2022/05/02 09:01:14;;;;;;;20.63;14.48;;;15.00;63.20;;;;;;4970315;28;20053;-75
2022/05/02 09:03:58;;;;;;;;;;;14.80;61.30;;;;;;4973986;28;20103;-75
2022/05/02 09:06:45;;;;;;;17.35;12.82;;;14.90;61.80;;;;;;4973882;28;19906;-75
2022/05/02 09:09:26;;;;;;;14.75;11.45;;;15.20;63.10;;;;;;4973308;28;20501;-75
2022/05/02 09:12:27;;;;;;;16.23;13.05;;;15.50;62.50;;;;;;4973749;28;20169;-75
2022/05/02 09:15:11;;;;;;;14.57;10.60;;;15.70;59.70;;;;;;4973484;28;20029;-75
2022/05/02 09:17:58;;;;;;;14.25;10.48;;;15.80;59.10;;;;;;4973630;28;20121;-75
2022/05/02 09:20:24;;;;;;;15.40;10.25;;;15.90;58.00;;;;;;4973763;28;20121;-75
2022/05/02 09:23:11;;;;;;;15.80;11.50;;;16.20;57.80;;;;;;4973734;28;20114;-75
2022/05/02 09:25:59;;;;;;;15.10;10.80;;;16.20;56.70;;;;;;4973697;28;20062;-75
2022/05/02 09:28:45;;;;;;;15.00;9.70;;;16.30;56.30;;;;;;4973463;28;20030;-75
2022/05/02 09:31:55;;;;;;;12.88;11.00;;;16.50;56.60;;;;;;4953569;28;20035;-74
2022/05/02 09:34:39;;;;;;;11.93;10.68;;;16.70;53.30;;;;;;4973161;28;20026;-74
2022/05/02 09:37:06;;;;;;;15.68;10.40;;;16.50;52.80;;;;;;4973032;28;20084;-75
2022/05/02 09:39:47;;;;;;;13.73;9.23;;;16.70;53.90;;;;;;4972986;28;20023;-74
2022/05/02 09:42:15;;;;;;;10.27;8.25;;;16.90;54.60;;;;;;4973079;28;20115;-75
2022/05/02 09:49:33;;;;;;;12.38;8.35;;;17.50;51.50;;;;;;4974489;28;20037;-75
2022/05/02 09:51:39;;;;;;;11.57;8.15;;;17.90;50.70;;;;;;4973781;28;20139;-76
2022/05/02 09:54:10;;;;;;;10.73;8.77;;;18.20;47.80;;;;;;4972626;28;20073;-76
2022/05/02 09:56:45;;;;;;;12.18;8.85;;;18.20;45.00;;;;;;4972753;28;20034;-76
2022/05/02 09:59:24;;;;;;;8.73;7.32;;;18.10;44.40;;;;;;4972631;28;20121;-75
2022/05/02 10:02:15;;;;;;;11.48;8.57;;;18.20;46.30;;;;;;4972350;28;20027;-75
2022/05/02 10:05:05;;;;;;;11.82;8.40;;;18.40;47.40;;;;;;4971728;28;20109;-75
2022/05/02 10:07:40;;;;;;;11.02;8.52;;;18.70;46.80;;;;;;4971965;28;20046;-76
2022/05/02 10:10:39;;;;;;;10.52;9.05;;;18.80;45.40;;;;;;4972067;28;20051;-77
2022/05/02 10:13:17;;;;;;;12.50;8.50;;;18.60;43.50;;;;;;4972021;28;20405;-75
2022/05/02 10:16:04;;;;;;;9.07;7.82;;;18.60;44.30;;;;;;4972385;28;20058;-76
2022/05/02 10:18:43;;;;;;;11.93;9.73;;;18.70;45.50;;;;;;4970644;28;20319;-75
2022/05/02 10:21:09;;;;;;;13.20;8.68;;;18.60;44.70;;;;;;4972112;28;20026;-75
2022/05/02 10:23:50;;;;;;;10.85;8.88;;;18.40;45.30;;;;;;4972429;28;20077;-75
2022/05/02 10:26:35;;;;;;;12.43;8.65;;;18.50;44.70;;;;;;4977345;28;20061;-75
2022/05/02 10:29:36;;;;;;;13.55;9.23;;;18.70;44.00;;;;;;4981120;28;20477;-75
2022/05/02 10:32:10;;;;;;;9.35;8.13;;;18.70;43.70;;;;;;4979407;28;20027;-75
2022/05/02 10:34:37;;;;;;;11.63;7.57;;;18.70;45.60;;;;;;4979271;28;20037;-76
2022/05/02 10:37:07;;;;;;;8.82;7.75;;;18.90;44.70;;;;;;4978588;28;20034;-76
2022/05/02 10:39:47;;;;;;;9.52;7.78;;;19.10;43.80;;;;;;4978842;28;20099;-75
2022/05/02 10:42:17;;;;;;;11.98;7.35;;;19.30;44.00;;;;;;4979349;28;20023;-76
2022/05/02 10:45:03;;;;;;;9.85;7.97;;;19.00;42.20;;;;;;4978710;28;20050;-76
2022/05/02 10:47:49;;;;;;;;;;;18.90;42.20;;;;;;4978542;28;20062;-77
2022/05/02 10:50:16;;;;;;;;;;;18.80;42.70;;;;;;4977850;28;19906;-75
2022/05/02 10:53:00;;;;;;;11.18;6.25;;;19.00;42.10;;;;;;4978261;28;19916;-77
2022/05/02 10:55:33;;;;;;;8.05;6.30;;;19.10;42.00;;;;;;4978233;28;20124;-77
2022/05/02 10:58:09;;;;;;;8.35;6.90;;;19.10;42.40;;;;;;4978285;28;20129;-77
2022/05/02 11:01:02;;;;;;;10.45;6.45;;;19.10;42.30;;;;;;4977875;28;20038;-77
2022/05/02 11:03:54;;;;;;;9.60;6.55;;;19.30;41.60;;;;;;4977881;28;20035;-77
2022/05/02 11:06:57;;;;;;;9.95;5.90;;;19.30;41.60;;;;;;4978332;28;20022;-78
2022/05/02 11:09:35;;;;;;;5.20;4.68;;;19.30;41.00;;;;;;4978105;28;20054;-76
2022/05/02 11:12:03;;;;;;;8.55;6.90;;;19.50;40.60;;;;;;4977938;28;20034;-76
2022/05/02 11:14:50;;;;;;;9.90;7.25;;;19.90;40.20;;;;;;4978182;28;20026;-75
2022/05/02 11:17:43;;;;;;;7.70;6.90;;;20.10;39.80;;;;;;4977900;28;20030;-77
2022/05/02 11:23:30;;;;;;;9.75;7.47;;;20.20;38.70;;;;;;4979542;28;20033;-76
2022/05/02 11:26:20;;;;;;;8.55;6.82;;;19.70;39.30;;;;;;4978143;28;20544;-76
2022/05/02 11:29:13;;;;;;;9.02;6.03;;;19.30;39.90;;;;;;4978522;28;20477;-76
2022/05/02 11:31:55;;;;;;;11.95;7.55;;;19.20;40.50;;;;;;4978741;28;20178;-75
2022/05/02 11:35:00;;;;;;;6.20;5.45;;;19.40;39.90;;;;;;4978212;28;20030;-76
2022/05/02 11:37:50;;;;;;;6.90;5.45;;;19.60;40.70;;;;;;4976337;28;20082;-75
2022/05/02 11:40:17;;;;;;;5.95;5.30;;;20.00;39.90;;;;;;4975481;28;20022;-76
2022/05/02 11:42:46;;;;;;;8.68;6.68;;;20.20;39.00;;;;;;4974991;28;20214;-76
2022/05/02 11:45:17;;;;;;;11.40;7.03;;;20.20;38.30;;;;;;4974708;28;20117;-76
2022/05/02 11:47:55;;;;;;;7.25;6.55;;;20.10;38.10;;;;;;4975368;28;20054;-75
2022/05/02 11:50:23;;;;;;;8.73;6.18;;;20.10;38.30;;;;;;4975209;28;20033;-76
2022/05/02 11:52:54;;;;;;;6.70;5.97;;;19.80;38.60;;;;;;4974881;28;20031;-75
2022/05/02 11:55:30;;;;;;;6.13;5.53;;;19.50;39.20;;;;;;4975338;28;20065;-76
2022/05/02 11:58:07;;;;;;;5.72;5.13;;;19.50;38.90;;;;;;4975371;28;20089;-76
2022/05/02 12:00:36;;;;;;;6.13;5.18;;;19.70;39.80;;;;;;4975462;28;20023;-76
2022/05/02 12:03:15;;;;;;;7.85;6.15;;;19.90;38.40;;;;;;4974784;28;20100;-77
2022/05/02 12:05:42;;;;;;;10.15;5.15;;;20.30;36.80;;;;;;4975018;28;20529;-77
2022/05/02 12:08:16;;;;;;;6.45;5.20;;;20.20;38.10;;;;;;4974942;28;20030;-77
2022/05/02 12:10:47;;;;;;;5.45;4.80;;;20.50;37.50;;;;;;4974860;28;20037;-77
2022/05/02 12:13:17;;;;;;;6.20;4.85;;;20.80;36.50;;;;;;4974864;28;20078;-77
2022/05/02 12:16:03;;;;;;;8.35;4.97;;;20.90;36.60;;;;;;4974564;28;20031;-77
2022/05/02 12:18:44;;;;;;;5.90;4.03;;;21.10;35.20;;;;;;4974879;28;20042;-77
2022/05/02 12:21:39;;;;;;;8.70;6.10;;;21.10;37.40;;;;;;4974731;28;20555;-77
2022/05/02 12:24:06;;;;;;;6.47;5.88;;;21.00;35.40;;;;;;4969076;28;20034;-76
2022/05/02 12:26:33;;;;;;;8.00;6.57;;;20.60;36.70;;;;;;4974489;28;20073;-77
2022/05/02 12:29:04;;;;;;;8.25;5.80;;;20.60;36.30;;;;;;4974619;28;20027;-77
2022/05/02 12:31:37;;;;;;;8.60;5.88;;;20.50;37.40;;;;;;4974788;28;20027;-76
2022/05/02 12:34:09;;;;;;;8.15;5.95;;;20.50;37.20;;;;;;4974964;28;20096;-77
2022/05/02 12:36:56;;;;;;;6.72;5.45;;;20.30;37.20;;;;;;4974076;28;20031;-77
2022/05/02 12:39:27;;;;;;;11.07;6.03;;;20.50;37.00;;;;;;4990354;28;20497;-77
2022/05/02 12:42:13;;;;;;;6.72;4.15;;;20.80;36.10;;;;;;4974656;28;20027;-77
2022/05/02 12:45:03;;;;;;;6.78;4.00;;;21.00;36.10;;;;;;4974229;28;20117;-77
2022/05/02 12:48:06;;;;;;;7.40;4.07;;;21.20;35.70;;;;;;4974307;28;20465;-76
2022/05/02 12:50:44;;;;;;;4.00;3.60;;;21.30;34.50;;;;;;4974133;28;20042;-77
2022/05/02 12:54:09;;;;;;;7.70;4.32;;;21.40;34.50;;;;;;4990183;28;20432;-77
2022/05/02 12:56:07;;;;;;;5.80;4.20;;;21.60;33.90;;;;;;4975157;28;20085;-77
2022/05/02 13:01:23;;;;;;;7.55;4.93;;;21.90;33.10;;;;;;4988171;28;20153;-76
2022/05/02 13:03:58;;;;;;;7.40;4.43;;;21.70;33.10;;;;;;4973446;28;20041;-76
2022/05/02 13:06:24;;;;;;;;;;;21.50;34.60;;;;;;4975722;28;20374;-77
2022/05/02 13:09:06;;;;;;;9.93;4.72;;;21.40;35.10;;;;;;4973886;28;19961;-76
2022/05/02 13:11:36;;;;;;;6.10;4.95;;;21.00;35.00;;;;;;4973556;28;20037;-77
2022/05/02 13:14:20;;;;;;;8.05;5.07;;;20.50;35.60;;;;;;4973468;28;20019;-78
2022/05/02 13:16:46;;;;;;;5.22;4.30;;;20.20;35.90;;;;;;4973886;28;20035;-77
2022/05/02 13:19:12;;;;;;;7.20;5.35;;;20.00;36.10;;;;;;4973841;28;20433;-76
2022/05/02 13:21:38;;;;;;;4.68;3.95;;;20.30;36.20;;;;;;4973611;28;20085;-76
2022/05/02 13:24:07;;;;;;;5.95;4.63;;;20.40;36.30;;;;;;4973528;28;20492;-78
2022/05/02 13:26:37;;;;;;;7.07;4.07;;;20.70;35.00;;;;;;4973540;28;20425;-77
2022/05/02 13:29:13;;;;;;;4.05;3.58;;;20.70;35.40;;;;;;4973642;28;20418;-77
2022/05/02 13:31:53;;;;;;;4.43;3.80;;;20.80;35.70;;;;;;4973394;28;20092;-78
2022/05/02 13:34:31;;;;;;;6.63;3.85;;;20.90;35.10;;;;;;4972627;28;20093;-76
2022/05/02 13:37:26;;;;;;;4.50;3.40;;;21.20;34.80;;;;;;4972706;28;20039;-77
2022/05/02 13:40:09;;;;;;;5.50;3.90;;;21.80;34.30;;;;;;4974221;28;20043;-76
2022/05/02 13:42:40;;;;;;;5.13;3.92;;;22.60;34.20;;;;;;4973095;28;20026;-77